sensor_id;sensor_type;location;lat;lon;timestamp;temperature;humidity
12977;DHT22;6553;48.412;9.514;2022-11-20T00:01:24;17.30;78.20
12977;DHT22;6553;48.412;9.514;2022-11-20T00:03:52;17.30;78.00
12977;DHT22;6553;48.412;9.514;2022-11-20T00:06:20;17.30;78.10
12977;DHT22;6553;48.412;9.514;2022-11-20T00:08:47;17.30;78.20
12977;DHT22;6553;48.412;9.514;2022-11-20T00:11:18;17.30;78.10
12977;DHT22;6553;48.412;9.514;2022-11-20T00:13:47;17.30;78.00
12977;DHT22;6553;48.412;9.514;2022-11-20T00:16:17;17.30;77.90
12977;DHT22;6553;48.412;9.514;2022-11-20T00:18:45;17.30;77.80
12977;DHT22;6553;48.412;9.514;2022-11-20T00:21:16;17.30;77.80
12977;DHT22;6553;48.412;9.514;2022-11-20T00:23:43;17.30;77.80
12977;DHT22;6553;48.412;9.514;2022-11-20T00:26:12;17.30;77.80
12977;DHT22;6553;48.412;9.514;2022-11-20T00:28:40;17.30;77.80
12977;DHT22;6553;48.412;9.514;2022-11-20T00:31:09;17.30;77.80
12977;DHT22;6553;48.412;9.514;2022-11-20T00:33:40;17.30;77.80
12977;DHT22;6553;48.412;9.514;2022-11-20T00:36:17;17.30;77.80
12977;DHT22;6553;48.412;9.514;2022-11-20T00:38:55;17.30;77.80
12977;DHT22;6553;48.412;9.514;2022-11-20T00:41:23;17.30;78.70
12977;DHT22;6553;48.412;9.514;2022-11-20T00:43:52;17.30;77.80
12977;DHT22;6553;48.412;9.514;2022-11-20T00:46:21;17.30;77.80
12977;DHT22;6553;48.412;9.514;2022-11-20T00:48:49;17.30;77.80
12977;DHT22;6553;48.412;9.514;2022-11-20T00:51:18;17.30;77.80
12977;DHT22;6553;48.412;9.514;2022-11-20T00:53:47;17.30;77.80
12977;DHT22;6553;48.412;9.514;2022-11-20T00:56:14;17.30;77.80
12977;DHT22;6553;48.412;9.514;2022-11-20T00:58:44;17.30;77.80
12977;DHT22;6553;48.412;9.514;2022-11-20T01:01:20;17.30;77.60
12977;DHT22;6553;48.412;9.514;2022-11-20T01:03:51;17.30;77.60
12977;DHT22;6553;48.412;9.514;2022-11-20T01:06:21;17.30;77.70
12977;DHT22;6553;48.412;9.514;2022-11-20T01:08:54;17.20;77.50
12977;DHT22;6553;48.412;9.514;2022-11-20T01:11:27;17.30;77.80
12977;DHT22;6553;48.412;9.514;2022-11-20T01:13:56;17.30;77.80
12977;DHT22;6553;48.412;9.514;2022-11-20T01:16:25;17.30;77.70
12977;DHT22;6553;48.412;9.514;2022-11-20T01:19:00;17.30;77.60
12977;DHT22;6553;48.412;9.514;2022-11-20T01:21:32;17.30;77.60
12977;DHT22;6553;48.412;9.514;2022-11-20T01:24:02;17.20;77.40
12977;DHT22;6553;48.412;9.514;2022-11-20T01:26:34;17.30;77.60
12977;DHT22;6553;48.412;9.514;2022-11-20T01:29:02;17.30;77.50
12977;DHT22;6553;48.412;9.514;2022-11-20T01:31:32;17.20;77.30
12977;DHT22;6553;48.412;9.514;2022-11-20T01:34:05;17.20;77.30
12977;DHT22;6553;48.412;9.514;2022-11-20T01:36:35;17.30;77.30
12977;DHT22;6553;48.412;9.514;2022-11-20T01:39:05;17.20;77.20
12977;DHT22;6553;48.412;9.514;2022-11-20T01:41:33;17.20;77.20
12977;DHT22;6553;48.412;9.514;2022-11-20T01:44:39;17.20;77.40
12977;DHT22;6553;48.412;9.514;2022-11-20T01:52:54;17.20;77.20
12977;DHT22;6553;48.412;9.514;2022-11-20T01:55:32;17.20;77.20
12977;DHT22;6553;48.412;9.514;2022-11-20T01:58:02;17.20;77.20
12977;DHT22;6553;48.412;9.514;2022-11-20T02:00:28;17.20;77.20
12977;DHT22;6553;48.412;9.514;2022-11-20T02:02:58;17.20;77.20
12977;DHT22;6553;48.412;9.514;2022-11-20T02:08:05;17.20;77.30
12977;DHT22;6553;48.412;9.514;2022-11-20T02:10:33;17.20;77.20
12977;DHT22;6553;48.412;9.514;2022-11-20T02:12:59;17.20;77.10
12977;DHT22;6553;48.412;9.514;2022-11-20T02:15:44;17.30;77.10
12977;DHT22;6553;48.412;9.514;2022-11-20T02:18:11;17.20;77.00
12977;DHT22;6553;48.412;9.514;2022-11-20T02:20:46;17.20;77.00
12977;DHT22;6553;48.412;9.514;2022-11-20T02:23:32;17.20;77.00
12977;DHT22;6553;48.412;9.514;2022-11-20T02:26:06;17.20;77.10
12977;DHT22;6553;48.412;9.514;2022-11-20T02:28:36;17.20;77.10
12977;DHT22;6553;48.412;9.514;2022-11-20T02:31:02;17.20;77.20
12977;DHT22;6553;48.412;9.514;2022-11-20T02:33:28;17.20;77.10
12977;DHT22;6553;48.412;9.514;2022-11-20T02:35:54;17.20;77.20
12977;DHT22;6553;48.412;9.514;2022-11-20T02:38:20;17.20;77.10
12977;DHT22;6553;48.412;9.514;2022-11-20T02:40:46;17.20;77.20
12977;DHT22;6553;48.412;9.514;2022-11-20T02:43:12;17.20;77.00
12977;DHT22;6553;48.412;9.514;2022-11-20T02:45:38;17.20;77.00
12977;DHT22;6553;48.412;9.514;2022-11-20T02:48:06;17.20;77.00
12977;DHT22;6553;48.412;9.514;2022-11-20T02:50:32;17.20;77.00
12977;DHT22;6553;48.412;9.514;2022-11-20T02:52:58;17.20;76.90
12977;DHT22;6553;48.412;9.514;2022-11-20T02:55:24;17.20;77.00
12977;DHT22;6553;48.412;9.514;2022-11-20T02:57:50;17.20;77.00
12977;DHT22;6553;48.412;9.514;2022-11-20T03:00:15;17.20;76.90
12977;DHT22;6553;48.412;9.514;2022-11-20T03:02:41;17.20;76.90
12977;DHT22;6553;48.412;9.514;2022-11-20T03:05:07;17.20;76.90
12977;DHT22;6553;48.412;9.514;2022-11-20T03:07:33;17.20;76.80
12977;DHT22;6553;48.412;9.514;2022-11-20T03:09:59;17.20;77.00
12977;DHT22;6553;48.412;9.514;2022-11-20T03:12:25;17.20;77.00
12977;DHT22;6553;48.412;9.514;2022-11-20T03:14:50;17.20;76.90
12977;DHT22;6553;48.412;9.514;2022-11-20T03:17:16;17.20;77.00
12977;DHT22;6553;48.412;9.514;2022-11-20T03:19:42;17.20;77.00
12977;DHT22;6553;48.412;9.514;2022-11-20T03:22:08;17.20;77.00
12977;DHT22;6553;48.412;9.514;2022-11-20T03:24:33;17.20;77.00
12977;DHT22;6553;48.412;9.514;2022-11-20T03:26:59;17.20;77.00
12977;DHT22;6553;48.412;9.514;2022-11-20T03:29:25;17.20;76.90
12977;DHT22;6553;48.412;9.514;2022-11-20T03:31:51;17.20;76.90
12977;DHT22;6553;48.412;9.514;2022-11-20T03:34:16;17.20;76.90
12977;DHT22;6553;48.412;9.514;2022-11-20T03:36:43;17.20;77.00
12977;DHT22;6553;48.412;9.514;2022-11-20T03:39:09;17.20;76.80
12977;DHT22;6553;48.412;9.514;2022-11-20T03:41:40;17.20;76.80
12977;DHT22;6553;48.412;9.514;2022-11-20T03:44:09;17.20;76.80
12977;DHT22;6553;48.412;9.514;2022-11-20T03:46:36;17.20;76.80
12977;DHT22;6553;48.412;9.514;2022-11-20T03:49:02;17.20;76.80
12977;DHT22;6553;48.412;9.514;2022-11-20T03:51:30;17.20;76.70
12977;DHT22;6553;48.412;9.514;2022-11-20T03:54:00;17.20;76.60
12977;DHT22;6553;48.412;9.514;2022-11-20T03:56:30;17.20;76.60
12977;DHT22;6553;48.412;9.514;2022-11-20T03:58:58;17.20;76.60
12977;DHT22;6553;48.412;9.514;2022-11-20T04:01:31;17.20;76.50
12977;DHT22;6553;48.412;9.514;2022-11-20T04:03:58;17.20;76.70
12977;DHT22;6553;48.412;9.514;2022-11-20T04:06:36;17.20;76.80
12977;DHT22;6553;48.412;9.514;2022-11-20T04:09:03;17.20;76.70
12977;DHT22;6553;48.412;9.514;2022-11-20T04:11:32;17.20;76.80
12977;DHT22;6553;48.412;9.514;2022-11-20T04:14:02;17.20;76.70
12977;DHT22;6553;48.412;9.514;2022-11-20T04:16:32;17.20;77.50
12977;DHT22;6553;48.412;9.514;2022-11-20T04:19:01;17.20;76.70
12977;DHT22;6553;48.412;9.514;2022-11-20T04:21:29;17.20;76.60
12977;DHT22;6553;48.412;9.514;2022-11-20T04:23:56;17.20;76.50
12977;DHT22;6553;48.412;9.514;2022-11-20T04:26:23;17.20;76.60
12977;DHT22;6553;48.412;9.514;2022-11-20T04:28:51;17.20;76.50
12977;DHT22;6553;48.412;9.514;2022-11-20T04:31:19;17.20;76.60
12977;DHT22;6553;48.412;9.514;2022-11-20T04:33:49;17.20;76.60
12977;DHT22;6553;48.412;9.514;2022-11-20T04:36:16;17.20;76.40
12977;DHT22;6553;48.412;9.514;2022-11-20T04:38:44;17.20;76.40
12977;DHT22;6553;48.412;9.514;2022-11-20T04:41:19;17.10;76.20
12977;DHT22;6553;48.412;9.514;2022-11-20T04:43:50;17.20;76.40
12977;DHT22;6553;48.412;9.514;2022-11-20T04:46:18;17.20;76.50
12977;DHT22;6553;48.412;9.514;2022-11-20T04:48:46;17.20;76.50
12977;DHT22;6553;48.412;9.514;2022-11-20T04:51:12;17.20;76.70
12977;DHT22;6553;48.412;9.514;2022-11-20T04:53:38;17.20;76.50
12977;DHT22;6553;48.412;9.514;2022-11-20T04:56:09;17.10;76.30
12977;DHT22;6553;48.412;9.514;2022-11-20T04:58:38;17.20;76.50
12977;DHT22;6553;48.412;9.514;2022-11-20T05:01:12;17.20;76.50
12977;DHT22;6553;48.412;9.514;2022-11-20T05:03:44;17.20;76.40
12977;DHT22;6553;48.412;9.514;2022-11-20T05:06:15;17.20;76.20
12977;DHT22;6553;48.412;9.514;2022-11-20T05:08:42;17.20;76.30
12977;DHT22;6553;48.412;9.514;2022-11-20T05:11:20;17.20;76.30
12977;DHT22;6553;48.412;9.514;2022-11-20T05:13:47;17.20;76.30
12977;DHT22;6553;48.412;9.514;2022-11-20T05:16:19;17.20;77.00
12977;DHT22;6553;48.412;9.514;2022-11-20T05:18:46;17.20;76.40
12977;DHT22;6553;48.412;9.514;2022-11-20T05:21:13;17.20;76.40
12977;DHT22;6553;48.412;9.514;2022-11-20T05:23:40;17.20;76.30
12977;DHT22;6553;48.412;9.514;2022-11-20T05:26:07;17.20;76.40
12977;DHT22;6553;48.412;9.514;2022-11-20T05:28:38;17.10;76.10
12977;DHT22;6553;48.412;9.514;2022-11-20T05:33:34;17.20;76.30
12977;DHT22;6553;48.412;9.514;2022-11-20T05:36:02;17.20;76.40
12977;DHT22;6553;48.412;9.514;2022-11-20T05:38:29;17.10;76.10
12977;DHT22;6553;48.412;9.514;2022-11-20T05:40:55;17.20;76.20
12977;DHT22;6553;48.412;9.514;2022-11-20T05:43:35;17.20;76.20
12977;DHT22;6553;48.412;9.514;2022-11-20T05:46:02;17.20;76.10
12977;DHT22;6553;48.412;9.514;2022-11-20T05:48:29;17.10;76.00
12977;DHT22;6553;48.412;9.514;2022-11-20T05:50:58;17.10;76.00
12977;DHT22;6553;48.412;9.514;2022-11-20T05:53:25;17.10;75.90
12977;DHT22;6553;48.412;9.514;2022-11-20T05:56:02;17.20;76.10
12977;DHT22;6553;48.412;9.514;2022-11-20T05:58:47;17.20;75.90
12977;DHT22;6553;48.412;9.514;2022-11-20T06:01:19;17.20;76.10
12977;DHT22;6553;48.412;9.514;2022-11-20T06:03:47;17.20;76.10
12977;DHT22;6553;48.412;9.514;2022-11-20T06:06:16;17.10;76.00
12977;DHT22;6553;48.412;9.514;2022-11-20T06:08:43;17.20;76.20
12977;DHT22;6553;48.412;9.514;2022-11-20T06:11:11;17.10;76.00
12977;DHT22;6553;48.412;9.514;2022-11-20T06:13:38;17.20;76.10
12977;DHT22;6553;48.412;9.514;2022-11-20T06:16:05;17.20;76.00
12977;DHT22;6553;48.412;9.514;2022-11-20T06:18:31;17.20;75.90
12977;DHT22;6553;48.412;9.514;2022-11-20T06:21:08;17.20;75.80
12977;DHT22;6553;48.412;9.514;2022-11-20T06:23:36;17.20;75.80
12977;DHT22;6553;48.412;9.514;2022-11-20T06:26:04;17.20;75.90
12977;DHT22;6553;48.412;9.514;2022-11-20T06:28:32;17.10;75.70
12977;DHT22;6553;48.412;9.514;2022-11-20T06:30:58;17.10;75.70
12977;DHT22;6553;48.412;9.514;2022-11-20T06:33:25;17.20;76.10
12977;DHT22;6553;48.412;9.514;2022-11-20T06:35:51;17.10;75.70
12977;DHT22;6553;48.412;9.514;2022-11-20T06:38:17;17.10;75.70
12977;DHT22;6553;48.412;9.514;2022-11-20T06:40:43;17.10;75.90
12977;DHT22;6553;48.412;9.514;2022-11-20T06:43:10;17.10;76.00
12977;DHT22;6553;48.412;9.514;2022-11-20T06:45:36;17.10;75.80
12977;DHT22;6553;48.412;9.514;2022-11-20T06:48:02;17.10;75.90
12977;DHT22;6553;48.412;9.514;2022-11-20T06:50:28;17.20;75.80
12977;DHT22;6553;48.412;9.514;2022-11-20T06:52:54;17.10;75.80
12977;DHT22;6553;48.412;9.514;2022-11-20T06:55:20;17.10;75.90
12977;DHT22;6553;48.412;9.514;2022-11-20T06:57:46;17.10;75.70
12977;DHT22;6553;48.412;9.514;2022-11-20T07:00:12;17.10;75.70
12977;DHT22;6553;48.412;9.514;2022-11-20T07:02:38;17.20;75.80
12977;DHT22;6553;48.412;9.514;2022-11-20T07:05:04;17.10;75.70
12977;DHT22;6553;48.412;9.514;2022-11-20T07:07:30;17.20;75.80
12977;DHT22;6553;48.412;9.514;2022-11-20T07:09:56;17.20;75.80
12977;DHT22;6553;48.412;9.514;2022-11-20T07:12:22;17.20;75.70
12977;DHT22;6553;48.412;9.514;2022-11-20T07:14:48;17.10;75.70
12977;DHT22;6553;48.412;9.514;2022-11-20T07:17:13;17.10;75.60
12977;DHT22;6553;48.412;9.514;2022-11-20T07:19:39;17.10;75.70
12977;DHT22;6553;48.412;9.514;2022-11-20T07:22:05;17.10;75.60
12977;DHT22;6553;48.412;9.514;2022-11-20T07:24:31;17.10;75.70
12977;DHT22;6553;48.412;9.514;2022-11-20T07:26:56;17.10;75.70
12977;DHT22;6553;48.412;9.514;2022-11-20T07:29:22;17.10;75.70
12977;DHT22;6553;48.412;9.514;2022-11-20T07:31:48;17.10;75.70
12977;DHT22;6553;48.412;9.514;2022-11-20T07:34:14;17.10;75.70
12977;DHT22;6553;48.412;9.514;2022-11-20T07:36:40;17.10;75.70
12977;DHT22;6553;48.412;9.514;2022-11-20T07:39:05;17.20;75.80
12977;DHT22;6553;48.412;9.514;2022-11-20T07:41:31;17.20;75.80
12977;DHT22;6553;48.412;9.514;2022-11-20T07:43:57;17.20;75.80
12977;DHT22;6553;48.412;9.514;2022-11-20T07:46:23;17.20;75.60
12977;DHT22;6553;48.412;9.514;2022-11-20T07:48:48;17.10;75.60
12977;DHT22;6553;48.412;9.514;2022-11-20T07:51:14;17.20;75.80
12977;DHT22;6553;48.412;9.514;2022-11-20T07:53:40;17.20;75.60
12977;DHT22;6553;48.412;9.514;2022-11-20T07:56:06;17.20;75.60
12977;DHT22;6553;48.412;9.514;2022-11-20T07:58:32;17.20;75.60
12977;DHT22;6553;48.412;9.514;2022-11-20T08:01:06;17.20;75.60
12977;DHT22;6553;48.412;9.514;2022-11-20T08:03:33;17.20;75.50
12977;DHT22;6553;48.412;9.514;2022-11-20T08:06:00;17.10;75.50
12977;DHT22;6553;48.412;9.514;2022-11-20T08:08:27;17.10;75.30
12977;DHT22;6553;48.412;9.514;2022-11-20T08:10:53;17.20;75.50
12977;DHT22;6553;48.412;9.514;2022-11-20T08:13:39;17.20;75.40
12977;DHT22;6553;48.412;9.514;2022-11-20T08:16:23;17.20;75.40
12977;DHT22;6553;48.412;9.514;2022-11-20T08:18:49;17.20;75.50
12977;DHT22;6553;48.412;9.514;2022-11-20T08:21:15;17.20;75.50
12977;DHT22;6553;48.412;9.514;2022-11-20T08:23:40;17.20;75.40
12977;DHT22;6553;48.412;9.514;2022-11-20T08:26:06;17.20;75.40
12977;DHT22;6553;48.412;9.514;2022-11-20T08:28:32;17.20;75.20
12977;DHT22;6553;48.412;9.514;2022-11-20T08:31:02;17.20;75.20
12977;DHT22;6553;48.412;9.514;2022-11-20T08:33:29;17.20;75.30
12977;DHT22;6553;48.412;9.514;2022-11-20T08:36:00;17.20;75.20
12977;DHT22;6553;48.412;9.514;2022-11-20T08:38:26;17.20;75.10
12977;DHT22;6553;48.412;9.514;2022-11-20T08:40:59;17.20;75.10
12977;DHT22;6553;48.412;9.514;2022-11-20T08:43:44;17.20;75.20
12977;DHT22;6553;48.412;9.514;2022-11-20T08:46:10;17.20;75.20
12977;DHT22;6553;48.412;9.514;2022-11-20T08:48:36;17.20;75.10
12977;DHT22;6553;48.412;9.514;2022-11-20T08:51:01;17.20;75.00
12977;DHT22;6553;48.412;9.514;2022-11-20T08:53:28;17.20;75.20
12977;DHT22;6553;48.412;9.514;2022-11-20T08:55:53;17.20;75.10
12977;DHT22;6553;48.412;9.514;2022-11-20T08:58:19;17.20;75.20
12977;DHT22;6553;48.412;9.514;2022-11-20T09:00:45;17.20;75.30
12977;DHT22;6553;48.412;9.514;2022-11-20T09:03:11;17.20;75.30
12977;DHT22;6553;48.412;9.514;2022-11-20T09:05:38;17.20;75.20
12977;DHT22;6553;48.412;9.514;2022-11-20T09:08:04;17.20;75.20
12977;DHT22;6553;48.412;9.514;2022-11-20T09:10:30;17.20;75.20
12977;DHT22;6553;48.412;9.514;2022-11-20T09:12:56;17.20;75.30
12977;DHT22;6553;48.412;9.514;2022-11-20T09:15:23;17.20;75.20
12977;DHT22;6553;48.412;9.514;2022-11-20T09:17:53;17.20;76.00
12977;DHT22;6553;48.412;9.514;2022-11-20T09:20:19;17.20;75.30
12977;DHT22;6553;48.412;9.514;2022-11-20T09:22:46;17.20;75.10
12977;DHT22;6553;48.412;9.514;2022-11-20T09:25:11;17.20;75.10
12977;DHT22;6553;48.412;9.514;2022-11-20T09:27:37;17.20;75.10
12977;DHT22;6553;48.412;9.514;2022-11-20T09:30:04;17.20;75.10
12977;DHT22;6553;48.412;9.514;2022-11-20T09:32:30;17.20;75.00
12977;DHT22;6553;48.412;9.514;2022-11-20T09:34:56;17.20;75.00
12977;DHT22;6553;48.412;9.514;2022-11-20T09:37:21;17.20;75.00
12977;DHT22;6553;48.412;9.514;2022-11-20T09:39:47;17.20;75.10
12977;DHT22;6553;48.412;9.514;2022-11-20T09:42:25;17.20;75.00
12977;DHT22;6553;48.412;9.514;2022-11-20T09:48:29;17.20;75.10
12977;DHT22;6553;48.412;9.514;2022-11-20T09:51:23;17.20;75.20
12977;DHT22;6553;48.412;9.514;2022-11-20T09:54:17;17.20;75.10
12977;DHT22;6553;48.412;9.514;2022-11-20T09:56:58;17.20;75.00
12977;DHT22;6553;48.412;9.514;2022-11-20T09:59:41;17.20;75.10
12977;DHT22;6553;48.412;9.514;2022-11-20T10:02:26;17.20;75.20
12977;DHT22;6553;48.412;9.514;2022-11-20T10:07:41;17.20;75.20
12977;DHT22;6553;48.412;9.514;2022-11-20T10:13:20;17.20;75.20
12977;DHT22;6553;48.412;9.514;2022-11-20T10:27:37;17.20;75.20
12977;DHT22;6553;48.412;9.514;2022-11-20T10:30:14;17.20;75.10
12977;DHT22;6553;48.412;9.514;2022-11-20T10:33:18;17.20;75.10
12977;DHT22;6553;48.412;9.514;2022-11-20T10:36:00;17.20;75.10
12977;DHT22;6553;48.412;9.514;2022-11-20T10:38:40;17.20;75.10
12977;DHT22;6553;48.412;9.514;2022-11-20T10:41:26;17.20;75.10
12977;DHT22;6553;48.412;9.514;2022-11-20T10:46:40;17.20;75.10
12977;DHT22;6553;48.412;9.514;2022-11-20T10:49:18;17.20;75.20
12977;DHT22;6553;48.412;9.514;2022-11-20T10:58:14;17.20;75.20
12977;DHT22;6553;48.412;9.514;2022-11-20T11:01:23;17.20;75.20
12977;DHT22;6553;48.412;9.514;2022-11-20T11:03:53;17.20;75.20
12977;DHT22;6553;48.412;9.514;2022-11-20T11:06:31;17.20;75.20
12977;DHT22;6553;48.412;9.514;2022-11-20T11:09:11;17.20;75.10
12977;DHT22;6553;48.412;9.514;2022-11-20T11:11:42;17.20;75.20
12977;DHT22;6553;48.412;9.514;2022-11-20T11:14:12;17.20;75.30
12977;DHT22;6553;48.412;9.514;2022-11-20T11:16:51;17.20;75.20
12977;DHT22;6553;48.412;9.514;2022-11-20T11:19:18;17.20;75.20
12977;DHT22;6553;48.412;9.514;2022-11-20T11:21:53;17.20;75.20
12977;DHT22;6553;48.412;9.514;2022-11-20T11:24:22;17.20;75.30
12977;DHT22;6553;48.412;9.514;2022-11-20T11:27:01;17.20;75.20
12977;DHT22;6553;48.412;9.514;2022-11-20T11:29:30;17.20;75.20
12977;DHT22;6553;48.412;9.514;2022-11-20T11:32:23;17.20;75.20
12977;DHT22;6553;48.412;9.514;2022-11-20T11:35:00;17.20;75.20
12977;DHT22;6553;48.412;9.514;2022-11-20T11:37:36;17.20;75.30
12977;DHT22;6553;48.412;9.514;2022-11-20T11:40:05;17.20;75.30
12977;DHT22;6553;48.412;9.514;2022-11-20T11:42:35;17.20;75.30
12977;DHT22;6553;48.412;9.514;2022-11-20T11:45:14;17.20;75.40
12977;DHT22;6553;48.412;9.514;2022-11-20T11:52:43;17.20;75.30
12977;DHT22;6553;48.412;9.514;2022-11-20T11:55:26;17.20;75.30
12977;DHT22;6553;48.412;9.514;2022-11-20T12:01:04;17.20;75.20
12977;DHT22;6553;48.412;9.514;2022-11-20T12:03:39;17.20;75.30
12977;DHT22;6553;48.412;9.514;2022-11-20T12:06:17;17.20;75.30
12977;DHT22;6553;48.412;9.514;2022-11-20T12:11:23;17.30;75.30
12977;DHT22;6553;48.412;9.514;2022-11-20T12:14:17;17.30;75.30
12977;DHT22;6553;48.412;9.514;2022-11-20T12:16:50;17.30;75.30
12977;DHT22;6553;48.412;9.514;2022-11-20T12:19:18;17.30;75.30
12977;DHT22;6553;48.412;9.514;2022-11-20T12:25:08;17.30;75.20
12977;DHT22;6553;48.412;9.514;2022-11-20T12:28:02;17.30;75.20
12977;DHT22;6553;48.412;9.514;2022-11-20T12:31:23;17.30;75.20
12977;DHT22;6553;48.412;9.514;2022-11-20T12:34:12;17.30;75.20
12977;DHT22;6553;48.412;9.514;2022-11-20T12:39:42;17.30;75.20
12977;DHT22;6553;48.412;9.514;2022-11-20T12:42:23;17.30;75.20
12977;DHT22;6553;48.412;9.514;2022-11-20T12:45:25;17.30;75.20
12977;DHT22;6553;48.412;9.514;2022-11-20T12:51:15;17.30;75.30
12977;DHT22;6553;48.412;9.514;2022-11-20T12:54:24;17.30;75.30
12977;DHT22;6553;48.412;9.514;2022-11-20T12:57:14;17.30;75.30
12977;DHT22;6553;48.412;9.514;2022-11-20T12:59:56;17.30;75.30
12977;DHT22;6553;48.412;9.514;2022-11-20T13:05:59;17.30;75.20
12977;DHT22;6553;48.412;9.514;2022-11-20T13:08:34;17.30;75.20
12977;DHT22;6553;48.412;9.514;2022-11-20T13:17:05;17.30;75.30
12977;DHT22;6553;48.412;9.514;2022-11-20T13:19:38;17.30;75.30
12977;DHT22;6553;48.412;9.514;2022-11-20T13:22:05;17.30;75.10
12977;DHT22;6553;48.412;9.514;2022-11-20T13:24:32;17.30;75.20
12977;DHT22;6553;48.412;9.514;2022-11-20T13:27:04;17.30;75.10
12977;DHT22;6553;48.412;9.514;2022-11-20T13:32:50;17.30;75.30
12977;DHT22;6553;48.412;9.514;2022-11-20T13:35:26;17.30;75.30
12977;DHT22;6553;48.412;9.514;2022-11-20T13:38:10;17.30;75.30
12977;DHT22;6553;48.412;9.514;2022-11-20T13:40:50;17.30;75.30
12977;DHT22;6553;48.412;9.514;2022-11-20T13:43:27;17.30;75.10
12977;DHT22;6553;48.412;9.514;2022-11-20T13:46:03;17.30;75.20
12977;DHT22;6553;48.412;9.514;2022-11-20T13:48:41;17.30;75.10
12977;DHT22;6553;48.412;9.514;2022-11-20T13:51:37;17.30;75.10
12977;DHT22;6553;48.412;9.514;2022-11-20T13:54:40;17.30;75.30
12977;DHT22;6553;48.412;9.514;2022-11-20T14:00:20;17.30;75.20
12977;DHT22;6553;48.412;9.514;2022-11-20T14:03:23;17.30;75.20
12977;DHT22;6553;48.412;9.514;2022-11-20T14:06:15;17.30;75.20
12977;DHT22;6553;48.412;9.514;2022-11-20T14:08:49;17.30;75.20
12977;DHT22;6553;48.412;9.514;2022-11-20T14:11:18;17.30;75.30
12977;DHT22;6553;48.412;9.514;2022-11-20T14:14:04;17.30;75.30
12977;DHT22;6553;48.412;9.514;2022-11-20T14:16:40;17.30;75.40
12977;DHT22;6553;48.412;9.514;2022-11-20T14:19:25;17.30;75.30
12977;DHT22;6553;48.412;9.514;2022-11-20T14:24:35;17.30;75.40
12977;DHT22;6553;48.412;9.514;2022-11-20T14:27:01;17.30;75.30
12977;DHT22;6553;48.412;9.514;2022-11-20T14:29:35;17.30;75.30
12977;DHT22;6553;48.412;9.514;2022-11-20T14:32:03;17.30;75.20
12977;DHT22;6553;48.412;9.514;2022-11-20T14:34:32;17.30;75.20
12977;DHT22;6553;48.412;9.514;2022-11-20T14:37:04;17.30;75.20
12977;DHT22;6553;48.412;9.514;2022-11-20T14:39:34;17.30;75.10
12977;DHT22;6553;48.412;9.514;2022-11-20T14:42:01;17.30;75.20
12977;DHT22;6553;48.412;9.514;2022-11-20T14:44:39;17.30;75.20
12977;DHT22;6553;48.412;9.514;2022-11-20T14:47:10;17.30;75.20
12977;DHT22;6553;48.412;9.514;2022-11-20T14:49:39;17.30;75.20
12977;DHT22;6553;48.412;9.514;2022-11-20T14:52:14;17.30;75.30
12977;DHT22;6553;48.412;9.514;2022-11-20T14:54:48;17.30;75.30
12977;DHT22;6553;48.412;9.514;2022-11-20T14:57:33;17.30;75.20
12977;DHT22;6553;48.412;9.514;2022-11-20T15:02:34;17.30;75.00
12977;DHT22;6553;48.412;9.514;2022-11-20T15:05:01;17.30;75.30
12977;DHT22;6553;48.412;9.514;2022-11-20T15:07:32;17.30;75.20
12977;DHT22;6553;48.412;9.514;2022-11-20T15:10:10;17.30;75.10
12977;DHT22;6553;48.412;9.514;2022-11-20T15:12:41;17.20;75.20
12977;DHT22;6553;48.412;9.514;2022-11-20T15:15:42;17.30;75.20
12977;DHT22;6553;48.412;9.514;2022-11-20T15:18:22;17.30;75.20
12977;DHT22;6553;48.412;9.514;2022-11-20T15:20:54;17.30;75.00
12977;DHT22;6553;48.412;9.514;2022-11-20T15:23:21;17.30;75.00
12977;DHT22;6553;48.412;9.514;2022-11-20T15:25:48;17.20;75.00
12977;DHT22;6553;48.412;9.514;2022-11-20T15:28:19;17.30;75.00
12977;DHT22;6553;48.412;9.514;2022-11-20T15:30:48;17.20;75.00
12977;DHT22;6553;48.412;9.514;2022-11-20T15:33:16;17.20;75.10
12977;DHT22;6553;48.412;9.514;2022-11-20T15:35:42;17.20;75.10
12977;DHT22;6553;48.412;9.514;2022-11-20T15:38:09;17.20;75.10
12977;DHT22;6553;48.412;9.514;2022-11-20T15:40:35;17.30;75.20
12977;DHT22;6553;48.412;9.514;2022-11-20T15:43:01;17.20;75.00
12977;DHT22;6553;48.412;9.514;2022-11-20T15:45:38;17.30;75.10
12977;DHT22;6553;48.412;9.514;2022-11-20T15:50:56;17.20;75.00
12977;DHT22;6553;48.412;9.514;2022-11-20T15:53:24;17.20;75.00
12977;DHT22;6553;48.412;9.514;2022-11-20T15:55:50;17.20;74.90
12977;DHT22;6553;48.412;9.514;2022-11-20T15:58:16;17.20;74.90
12977;DHT22;6553;48.412;9.514;2022-11-20T16:00:43;17.30;75.00
12977;DHT22;6553;48.412;9.514;2022-11-20T16:03:11;17.20;74.90
12977;DHT22;6553;48.412;9.514;2022-11-20T16:05:37;17.20;74.80
12977;DHT22;6553;48.412;9.514;2022-11-20T16:08:04;17.20;74.80
12977;DHT22;6553;48.412;9.514;2022-11-20T16:10:30;17.20;74.80
12977;DHT22;6553;48.412;9.514;2022-11-20T16:12:56;17.20;74.90
12977;DHT22;6553;48.412;9.514;2022-11-20T16:15:40;17.20;75.00
12977;DHT22;6553;48.412;9.514;2022-11-20T16:18:18;17.20;75.00
12977;DHT22;6553;48.412;9.514;2022-11-20T16:20:47;17.20;75.00
12977;DHT22;6553;48.412;9.514;2022-11-20T16:23:14;17.20;74.90
12977;DHT22;6553;48.412;9.514;2022-11-20T16:25:41;17.20;74.90
12977;DHT22;6553;48.412;9.514;2022-11-20T16:28:08;17.20;74.90
12977;DHT22;6553;48.412;9.514;2022-11-20T16:30:34;17.20;74.80
12977;DHT22;6553;48.412;9.514;2022-11-20T16:33:01;17.20;74.70
12977;DHT22;6553;48.412;9.514;2022-11-20T16:35:31;17.20;74.80
12977;DHT22;6553;48.412;9.514;2022-11-20T16:37:57;17.20;74.80
12977;DHT22;6553;48.412;9.514;2022-11-20T16:40:24;17.20;74.90
12977;DHT22;6553;48.412;9.514;2022-11-20T16:42:51;17.20;74.90
12977;DHT22;6553;48.412;9.514;2022-11-20T16:45:17;17.20;74.80
12977;DHT22;6553;48.412;9.514;2022-11-20T16:47:43;17.20;74.90
12977;DHT22;6553;48.412;9.514;2022-11-20T16:50:09;17.20;74.70
12977;DHT22;6553;48.412;9.514;2022-11-20T16:52:35;17.20;74.70
12977;DHT22;6553;48.412;9.514;2022-11-20T16:55:01;17.20;74.80
12977;DHT22;6553;48.412;9.514;2022-11-20T16:57:27;17.20;74.70
12977;DHT22;6553;48.412;9.514;2022-11-20T16:59:55;17.20;74.80
12977;DHT22;6553;48.412;9.514;2022-11-20T17:02:21;17.20;74.70
12977;DHT22;6553;48.412;9.514;2022-11-20T17:04:47;17.20;74.80
12977;DHT22;6553;48.412;9.514;2022-11-20T17:07:13;17.20;74.70
12977;DHT22;6553;48.412;9.514;2022-11-20T17:09:39;17.20;74.70
12977;DHT22;6553;48.412;9.514;2022-11-20T17:12:05;17.20;74.70
12977;DHT22;6553;48.412;9.514;2022-11-20T17:14:31;17.20;74.70
12977;DHT22;6553;48.412;9.514;2022-11-20T17:16:56;17.20;74.80
12977;DHT22;6553;48.412;9.514;2022-11-20T17:19:23;17.20;74.60
12977;DHT22;6553;48.412;9.514;2022-11-20T17:21:48;17.20;74.60
12977;DHT22;6553;48.412;9.514;2022-11-20T17:24:14;17.20;74.70
12977;DHT22;6553;48.412;9.514;2022-11-20T17:26:41;17.20;74.70
12977;DHT22;6553;48.412;9.514;2022-11-20T17:29:14;17.20;74.80
12977;DHT22;6553;48.412;9.514;2022-11-20T17:31:43;17.20;74.70
12977;DHT22;6553;48.412;9.514;2022-11-20T17:34:11;17.20;74.90